Etusivu
METAR-TAF:

METAR-TAF

Lentoasemat :

Mthatha, Etelä-Afrikka

Leveyspiiri: 31-32-47S, Pituuspiiri: 028-40-31E, korkeus merenpinnasta: 740 m

Tämänhetkinen sää

Tämä raportti tehtiin 1 tunti ja 17 minuuttia sitten, kello 21.00 UTC
Tuuli 3 kn etelästä/lounaasta
Lämpötila 11°C
Kosteus 94%
Ilmanpaine 1014 hPa

METAR: FAUT 132100Z AUTO 21003KT //// // ////// 11/10 Q1014

Aika: 00:17 (22:17 UTC)

Sääennuste

Tämä raportti tehtiin 13 tuntia ja 17 minuuttia sitten, kello 09.00 UTC
Ennuste voimassa 13. päivästä klo 10 UTC - 13. päivään klo 18 UTC
Tuuli 3 kn eri suunnista
Näkyvyys: 4000 m
usvaa
Tulossa
13. päivästä klo 10 UTC - 13. päivään klo 12 UTC
Näkyvyys 10 km tai enemmän
ei pilviä alle 1500 m:ssä eikä cumulonimbus-pilviä
Tulossa
13. päivästä klo 11 UTC - 13. päivään klo 13 UTC
Tuuli 5 kn idästä/koillisesta

TAF: FAUT 130900Z 1310/1318 VRB03KT 4000 HZ NSC TX25/1311Z TN11/1318Z BECMG 1310/1312 CAVOK BECMG 1311/1313 07005KT

Säähavainnot ja -ennusteet yli 4000 lentoasemalta (METAR- ja TAF-raportit).

Käytössä olevat sääasemat on merkitty karttaan keltaisilla ja punaisilla pisteillä.

Aseta hiiri pisteen päälle nähdäksesi sääaseman nimen.

Klikkaa sitten nähdäksesi säähavainnot ja -ennusteet.

Kartan vaihtaminen: klikkaa mustalla rastilla varustettuja vihreitä pisteitä, niin voit zoomata sisään; viivalla varustettua vihreää pistettä, niin voit zoomata ulos tai vihreitä nuolia, niin pääset viereisille kartoille.


METAR-TAF: